createdAt,value
2022-09-17T00:04:06.847Z,13.24
2022-09-17T00:09:09.772Z,12.49
2022-09-17T00:14:14.403Z,13.23
2022-09-17T00:19:18.531Z,14.68
2022-09-17T00:24:21.865Z,13.35
2022-09-17T00:29:24.745Z,12.55
2022-09-17T00:34:27.342Z,13.01
2022-09-17T00:39:30.248Z,13.90
2022-09-17T00:44:48.308Z,12.81
2022-09-17T00:49:53.224Z,13.18
2022-09-17T00:55:00.464Z,14.17
2022-09-17T01:00:05.314Z,13.03
2022-09-17T01:05:08.574Z,12.89
2022-09-17T01:10:27.205Z,14.47
2022-09-17T01:15:47.867Z,13.20
2022-09-17T01:20:56.563Z,12.46
2022-09-17T01:26:18.511Z,13.95
2022-09-17T01:31:36.229Z,13.23
2022-09-17T01:36:57.283Z,12.28
2022-09-17T01:42:13.322Z,13.81
2022-09-17T01:47:45.912Z,14.73
2022-09-17T01:52:50.764Z,13.30
2022-09-17T01:57:58.685Z,12.50
2022-09-17T02:03:01.693Z,14.15
2022-09-17T02:08:14.600Z,14.13
2022-09-17T02:13:21.134Z,12.81
2022-09-17T02:18:26.687Z,13.32
2022-09-17T02:23:31.742Z,14.80
2022-09-17T02:28:46.529Z,13.49
2022-09-17T02:33:50.834Z,12.54
2022-09-17T02:39:02.164Z,12.99
2022-09-17T02:44:21.041Z,14.25
2022-09-17T02:49:42.890Z,13.03
2022-09-17T02:55:04.027Z,12.76
2022-09-17T03:00:14.685Z,14.73
2022-09-17T03:05:18.844Z,14.24
2022-09-17T03:10:21.747Z,12.92
2022-09-17T03:15:24.451Z,13.25
2022-09-17T03:20:27.250Z,14.46
2022-09-17T03:25:29.949Z,13.18
2022-09-17T03:30:32.712Z,12.60
2022-09-17T03:35:35.552Z,14.04
2022-09-17T03:40:38.988Z,13.30
2022-09-17T03:45:43.305Z,12.30
2022-09-17T03:50:46.008Z,13.59
2022-09-17T03:55:48.705Z,14.02
2022-09-17T04:00:53.474Z,12.71
2022-09-17T04:05:56.256Z,13.84
2022-09-17T04:10:59.159Z,13.78
2022-09-17T04:16:02.579Z,12.82
2022-09-17T04:21:05.581Z,13.97
2022-09-17T04:26:08.386Z,13.08
2022-09-17T04:31:11.163Z,13.52
2022-09-17T04:36:13.989Z,13.88
2022-09-17T04:41:16.891Z,13.33
2022-09-17T04:46:20.144Z,14.71
2022-09-17T04:51:22.805Z,13.94
2022-09-17T04:56:25.504Z,13.40
2022-09-17T05:01:28.265Z,15.18
2022-09-17T05:06:31.207Z,14.61
2022-09-17T05:11:34.418Z,13.72
2022-09-17T05:16:37.837Z,14.95
2022-09-17T05:21:40.539Z,15.33
2022-09-17T05:26:43.233Z,14.61
2022-09-17T05:31:46.184Z,14.49
2022-09-17T05:36:49.555Z,14.85
2022-09-17T05:41:53.278Z,15.81
2022-09-17T05:46:55.989Z,15.75
2022-09-17T05:51:58.677Z,15.09
2022-09-17T05:57:02.092Z,14.01
2022-09-17T06:02:05.474Z,13.55
2022-09-17T06:07:09.541Z,14.66
2022-09-17T06:12:12.343Z,15.63
2022-09-17T06:17:17.988Z,15.15
2022-09-17T06:22:24.292Z,14.86
2022-09-17T06:27:33.342Z,15.04
2022-09-17T06:32:36.144Z,14.94
2022-09-17T06:37:40.590Z,14.52
2022-09-17T06:42:43.283Z,14.28
2022-09-17T06:47:46.496Z,13.98
2022-09-17T06:52:49.708Z,13.97
2022-09-17T06:57:52.507Z,16.53
2022-09-17T07:02:56.508Z,17.61
2022-09-17T07:08:01.297Z,16.83
2022-09-17T07:13:04.367Z,15.68
2022-09-17T07:18:11.088Z,14.81
2022-09-17T07:23:13.795Z,14.46
2022-09-17T07:28:16.797Z,14.37
2022-09-17T07:33:23.491Z,14.32
2022-09-17T07:38:26.804Z,14.21
2022-09-17T07:43:31.140Z,16.16
2022-09-17T07:48:34.354Z,17.28
2022-09-17T07:53:37.052Z,17.48
2022-09-17T07:58:39.854Z,17.18
2022-09-17T08:03:43.857Z,17.41
2022-09-17T08:08:47.039Z,19.66
2022-09-17T08:13:50.928Z,21.60
2022-09-17T08:18:57.075Z,23.10
2022-09-17T08:23:59.867Z,23.64
2022-09-17T08:29:02.906Z,21.76
2022-09-17T08:34:09.770Z,20.66
2022-09-17T08:39:12.713Z,21.86
2022-09-17T08:44:21.658Z,23.03
2022-09-17T08:49:40.648Z,22.72
2022-09-17T08:55:01.693Z,21.43
2022-09-17T09:00:04.984Z,19.30
2022-09-17T09:05:16.899Z,17.72
2022-09-17T09:10:26.664Z,16.68
2022-09-17T09:15:36.122Z,16.13
2022-09-17T09:20:38.722Z,16.06
2022-09-17T09:25:48.587Z,16.17
2022-09-17T09:30:54.567Z,16.00
2022-09-17T09:35:57.570Z,16.09
2022-09-17T09:41:08.666Z,16.46
2022-09-17T09:46:25.221Z,17.06
2022-09-17T09:51:46.629Z,17.85
2022-09-17T09:56:56.338Z,18.93
2022-09-17T10:01:59.081Z,19.53
2022-09-17T10:07:06.401Z,19.39
2022-09-17T10:12:09.207Z,19.08
2022-09-17T10:17:14.691Z,18.85
2022-09-17T10:22:24.843Z,18.61
2022-09-17T10:27:28.462Z,17.88
2022-09-17T10:32:31.367Z,17.57
2022-09-17T10:37:47.891Z,17.95
2022-09-17T10:42:51.618Z,20.50
2022-09-17T10:47:55.550Z,23.43
2022-09-17T10:53:01.929Z,25.63
2022-09-17T10:58:10.467Z,26.45
2022-09-17T11:03:15.929Z,25.48
2022-09-17T11:08:21.706Z,24.18
2022-09-17T11:13:31.713Z,25.05
2022-09-17T11:18:41.233Z,24.95
2022-09-17T11:24:02.786Z,24.81
2022-09-17T11:29:05.472Z,25.78
2022-09-17T11:34:17.184Z,25.16
2022-09-17T11:39:26.849Z,23.73
2022-09-17T11:44:37.330Z,22.13
2022-09-17T11:49:45.766Z,20.38
2022-09-17T11:54:55.715Z,19.41
2022-09-17T12:00:08.861Z,19.19
2022-09-17T12:05:33.387Z,19.41
2022-09-17T12:10:36.090Z,20.04
2022-09-17T12:15:40.528Z,19.50
2022-09-17T12:20:45.825Z,18.45
2022-09-17T12:25:53.300Z,17.91
2022-09-17T12:31:05.760Z,17.60
2022-09-17T12:36:23.777Z,17.59
2022-09-17T12:41:44.714Z,18.17
2022-09-17T12:47:06.357Z,20.91
2022-09-17T12:52:27.596Z,24.22
2022-09-17T12:57:41.150Z,25.82
2022-09-17T13:02:54.089Z,26.42
2022-09-17T13:08:02.562Z,26.91
2022-09-17T13:13:20.682Z,27.79
2022-09-17T13:18:27.765Z,27.97
2022-09-17T13:23:32.840Z,26.24
2022-09-17T13:28:47.555Z,25.56
2022-09-17T13:33:58.515Z,26.44
2022-09-17T13:39:02.457Z,25.43
2022-09-17T13:44:06.478Z,23.15
2022-09-17T13:49:14.907Z,21.71
2022-09-17T13:54:18.963Z,21.21
2022-09-17T13:59:24.996Z,19.95
2022-09-17T14:04:36.628Z,18.75
2022-09-17T14:09:59.561Z,18.17
2022-09-17T14:15:02.303Z,17.87
2022-09-17T14:20:06.264Z,17.38
2022-09-17T14:25:16.294Z,16.91
2022-09-17T14:30:19.980Z,16.36
2022-09-17T14:35:32.144Z,15.75
2022-09-17T14:40:35.104Z,15.38
2022-09-17T14:45:40.923Z,15.15
2022-09-17T14:50:44.137Z,14.94
2022-09-17T14:55:47.960Z,14.78
2022-09-17T15:00:52.416Z,14.72
2022-09-17T15:05:55.203Z,14.74
2022-09-17T15:11:02.312Z,14.85
2022-09-17T15:16:07.833Z,15.61
2022-09-17T15:21:20.902Z,18.14
2022-09-17T15:26:29.552Z,20.67
2022-09-17T15:31:32.516Z,21.28
2022-09-17T15:36:35.462Z,20.21
2022-09-17T15:41:39.906Z,18.69
2022-09-17T15:46:42.803Z,17.31
2022-09-17T15:51:46.122Z,16.30
2022-09-17T15:56:54.966Z,15.58
2022-09-17T16:02:00.428Z,14.96
2022-09-17T16:07:23.199Z,14.49
2022-09-17T16:12:26.988Z,14.05
2022-09-17T16:17:37.399Z,13.75
2022-09-17T16:22:40.446Z,13.55
2022-09-17T16:27:43.113Z,13.39
2022-09-17T16:32:45.824Z,13.62
2022-09-17T16:37:50.270Z,15.75
2022-09-17T16:42:52.951Z,17.23
2022-09-17T16:47:56.060Z,17.95
2022-09-17T16:53:02.753Z,18.41
2022-09-17T16:58:08.216Z,18.64
2022-09-17T17:03:14.848Z,17.52
2022-09-17T17:08:17.717Z,15.83
2022-09-17T17:13:20.413Z,16.69
2022-09-17T17:18:23.930Z,17.53
2022-09-17T17:23:26.837Z,17.54
2022-09-17T17:28:33.838Z,15.81
2022-09-17T17:33:36.638Z,15.77
2022-09-17T17:38:39.540Z,16.95
2022-09-17T17:43:42.451Z,17.57
2022-09-17T17:48:46.246Z,17.74
2022-09-17T17:53:48.982Z,16.08
2022-09-17T17:58:56.585Z,14.55
2022-09-17T18:04:00.492Z,14.97
2022-09-17T18:09:03.976Z,16.37
2022-09-17T18:14:06.732Z,16.77
2022-09-17T18:19:11.358Z,15.42
2022-09-17T18:24:14.076Z,15.99
2022-09-17T18:29:16.781Z,16.53
2022-09-17T18:34:19.475Z,15.43
2022-09-17T18:44:45.559Z,16.23
2022-09-17T18:49:48.258Z,14.83
2022-09-17T18:54:50.962Z,14.66
2022-09-17T18:59:53.628Z,15.78
2022-09-17T19:04:56.359Z,16.30
2022-09-17T19:09:59.778Z,15.41
2022-09-17T19:15:02.726Z,14.37
2022-09-17T19:20:05.846Z,15.46
2022-09-17T19:25:09.614Z,16.09
2022-09-17T19:30:12.909Z,16.56
2022-09-17T19:35:15.831Z,16.72
2022-09-17T19:40:18.875Z,15.19
2022-09-17T19:45:22.767Z,15.08
2022-09-17T19:50:25.978Z,16.02
2022-09-17T19:55:28.882Z,16.39
2022-09-17T20:00:31.580Z,16.55
2022-09-17T20:05:35.202Z,15.53
2022-09-17T20:10:38.618Z,14.53
2022-09-17T20:15:41.671Z,15.53
2022-09-17T20:20:44.429Z,15.34
2022-09-17T20:25:53.782Z,13.93
2022-09-17T20:31:03.756Z,14.85
2022-09-17T20:36:08.063Z,15.48
2022-09-17T20:41:12.017Z,15.79
2022-09-17T20:46:16.026Z,14.82
2022-09-17T20:51:19.984Z,14.14
2022-09-17T20:56:25.031Z,15.28
2022-09-17T21:01:38.036Z,15.80
2022-09-17T21:06:42.213Z,16.10
2022-09-17T21:11:46.235Z,16.28
2022-09-17T21:16:49.246Z,15.21
2022-09-17T21:21:54.708Z,14.87
2022-09-17T21:26:57.408Z,15.67
2022-09-17T21:32:00.195Z,16.09
2022-09-17T21:37:05.064Z,16.57
2022-09-17T21:42:08.783Z,16.96
2022-09-17T21:47:12.494Z,17.20
2022-09-17T21:52:15.413Z,16.91
2022-09-17T21:57:18.110Z,14.88
2022-09-17T22:02:20.811Z,13.31
2022-09-17T22:07:23.920Z,12.35
2022-09-17T22:12:26.617Z,12.45
2022-09-17T22:17:29.320Z,14.22
2022-09-17T22:22:32.016Z,15.20
2022-09-17T22:27:34.819Z,15.73
2022-09-17T22:32:37.524Z,16.04
2022-09-17T22:37:40.220Z,16.32
2022-09-17T22:42:43.019Z,16.44
2022-09-17T22:47:45.667Z,16.59
2022-09-17T22:52:48.806Z,16.65
2022-09-17T22:57:51.527Z,16.68
2022-09-17T23:02:54.563Z,16.72
2022-09-17T23:07:57.297Z,16.80
2022-09-17T23:13:00.036Z,16.71
2022-09-17T23:18:02.939Z,16.63
2022-09-17T23:23:06.031Z,16.53
2022-09-17T23:28:08.750Z,16.52
2022-09-17T23:33:13.804Z,16.59
2022-09-17T23:38:16.501Z,16.61
2022-09-17T23:43:19.714Z,16.69
2022-09-17T23:48:22.720Z,16.72
2022-09-17T23:53:25.625Z,16.73
2022-09-17T23:58:32.217Z,16.65
